Onondaga, Michigan
Current Conditions -  °F | °C
As of 10:14 AM on Thursday 18 Dec 2014 (Local Time) from KTEW Reporting Station
Haze Haze  
Wind Chill: -4°   Ceiling: 800
Heat Index: -2°   Visibility: 3mi
Dew Point: -3°   Wind: 5mph
Humidity: 90%   Direction: 270°W
Pressure: 30.21"   Gusts: NA
Location:  42.44°N, 84.56°W
Report Text: KTEW 181514Z AUTO 27004KT 3SM BR OVC008 M01/M03 A3021 RMK AO2 T10151030
Loading
Personal Weather Stations






























Interactive Weather Map New forecast layout! Learn more

10-Day Weather Forecast

Advertisements
Track Severe Weather on mobile